Terminal Aerodrome Forecast
Issued by NWS Blacksburg, VA

Home | Current Version | Previous Version | Text Only | Print | Product List | Glossary On
Versions: 1 2 3 4 5 6 7 8 9 10 11 12 13 14 15 16 17 18 19 20 21 22 23 24 25 26 27 28 29 30 31 32 33 34 35 36 37 38
000
FTUS41 KRNK 150527
TAFDAN
TAF
KDAN 150527Z 1506/1606 00000KT P6SM OVC030
      TEMPO 1506/1509 BKN020 OVC025
     FM151500 24005KT P6SM BKN040
     FM160100 20003KT P6SM SCT035 BKN100=

USA.gov is the U.S. government's official web portal to all federal, state and local government web resources and services.